createdAt,value
2019-03-15T00:01:51.445Z,80.20
2019-03-15T00:04:19.897Z,80.20
2019-03-15T00:06:48.336Z,80.00
2019-03-15T00:09:16.804Z,79.70
2019-03-15T00:11:45.269Z,79.50
2019-03-15T00:14:13.715Z,80.00
2019-03-15T00:16:42.246Z,79.60
2019-03-15T00:19:10.688Z,79.60
2019-03-15T00:21:39.155Z,80.00
2019-03-15T00:24:07.611Z,79.30
2019-03-15T00:26:36.049Z,77.60
2019-03-15T00:29:04.495Z,79.80
2019-03-15T00:31:32.960Z,79.60
2019-03-15T00:34:01.403Z,79.60
2019-03-15T00:36:29.856Z,79.20
2019-03-15T00:38:58.295Z,78.70
2019-03-15T00:41:26.743Z,79.10
2019-03-15T00:43:55.188Z,78.20
2019-03-15T00:46:23.623Z,79.00
2019-03-15T00:48:52.084Z,78.80
2019-03-15T00:51:20.519Z,79.00
2019-03-15T00:53:48.966Z,79.00
2019-03-15T00:56:17.426Z,78.80
2019-03-15T00:58:45.868Z,78.30
2019-03-15T01:01:14.414Z,78.80
2019-03-15T01:03:42.859Z,78.80
2019-03-15T01:06:11.342Z,79.00
2019-03-15T01:08:39.790Z,79.20
2019-03-15T01:11:08.243Z,79.20
2019-03-15T01:13:37.072Z,79.40
2019-03-15T01:16:05.712Z,79.40
2019-03-15T01:18:34.160Z,79.50
2019-03-15T01:21:02.663Z,79.40
2019-03-15T01:23:31.147Z,79.20
2019-03-15T01:25:59.683Z,79.50
2019-03-15T01:28:28.182Z,79.40
2019-03-15T01:30:56.656Z,79.60
2019-03-15T01:33:25.105Z,79.40
2019-03-15T01:35:53.549Z,79.30
2019-03-15T01:38:21.999Z,79.50
2019-03-15T01:40:50.451Z,79.20
2019-03-15T01:43:18.899Z,79.20
2019-03-15T01:45:47.478Z,79.10
2019-03-15T01:48:16.927Z,79.30
2019-03-15T01:50:45.755Z,79.30
2019-03-15T01:53:14.199Z,79.30
2019-03-15T01:55:42.671Z,78.90
2019-03-15T01:58:11.135Z,78.70
2019-03-15T02:00:40.181Z,79.00
2019-03-15T02:03:08.641Z,79.00
2019-03-15T02:05:37.076Z,79.10
2019-03-15T02:08:05.525Z,78.90
2019-03-15T02:10:34.158Z,78.90
2019-03-15T02:13:02.887Z,79.00
2019-03-15T02:15:31.334Z,78.70
2019-03-15T02:17:59.791Z,78.80
2019-03-15T02:20:28.234Z,79.00
2019-03-15T02:22:56.691Z,79.10
2019-03-15T02:25:25.135Z,78.90
2019-03-15T02:27:53.624Z,79.00
2019-03-15T02:30:22.116Z,79.00
2019-03-15T02:32:50.642Z,79.00
2019-03-15T02:35:20.000Z,79.00
2019-03-15T02:37:48.897Z,79.20
2019-03-15T02:40:17.334Z,79.00
2019-03-15T02:42:45.868Z,79.00
2019-03-15T02:45:14.411Z,79.20
2019-03-15T02:47:42.884Z,79.50
2019-03-15T02:50:11.344Z,79.90
2019-03-15T02:52:39.803Z,80.10
2019-03-15T02:55:08.806Z,80.20
2019-03-15T02:57:37.304Z,80.30
2019-03-15T03:00:09.650Z,80.30
2019-03-15T03:02:38.101Z,80.40
2019-03-15T03:05:09.236Z,80.50
2019-03-15T03:07:37.727Z,80.60
2019-03-15T03:10:08.188Z,80.50
2019-03-15T03:12:36.153Z,80.60
2019-03-15T03:15:06.490Z,78.50
2019-03-15T03:17:34.929Z,80.20
2019-03-15T03:20:04.364Z,80.40
2019-03-15T03:22:32.896Z,80.00
2019-03-15T03:25:01.437Z,80.20
2019-03-15T03:27:29.880Z,80.20
2019-03-15T03:29:58.344Z,80.20
2019-03-15T03:32:26.819Z,80.10
2019-03-15T03:34:55.361Z,79.90
2019-03-15T03:37:24.192Z,79.60
2019-03-15T03:39:53.064Z,79.20
2019-03-15T03:42:21.509Z,79.30
2019-03-15T03:44:49.951Z,79.60
2019-03-15T03:47:18.523Z,79.60
2019-03-15T03:49:47.138Z,79.80
2019-03-15T03:52:15.579Z,80.10
2019-03-15T03:54:44.030Z,80.20
2019-03-15T03:57:12.547Z,80.30
2019-03-15T03:59:41.025Z,80.30
2019-03-15T04:02:09.553Z,80.40
2019-03-15T04:04:38.081Z,80.10
2019-03-15T04:07:06.523Z,79.80
2019-03-15T04:09:34.989Z,79.70
2019-03-15T04:12:03.420Z,79.70
2019-03-15T04:14:31.864Z,80.00
2019-03-15T04:17:00.308Z,80.20
2019-03-15T04:19:28.748Z,80.20
2019-03-15T04:21:57.195Z,80.20
2019-03-15T04:24:25.695Z,80.20
2019-03-15T04:26:54.206Z,79.70
2019-03-15T04:29:22.727Z,79.90
2019-03-15T04:31:51.206Z,79.70
2019-03-15T04:34:19.740Z,79.70
2019-03-15T04:36:48.184Z,80.00
2019-03-15T04:39:16.642Z,80.20
2019-03-15T04:41:45.111Z,80.60
2019-03-15T04:44:13.580Z,81.00
2019-03-15T04:46:42.017Z,81.20
2019-03-15T04:49:10.485Z,81.60
2019-03-15T04:51:38.984Z,81.60
2019-03-15T04:54:07.437Z,81.80
2019-03-15T04:56:35.879Z,81.80
2019-03-15T04:59:04.330Z,81.60
2019-03-15T05:01:32.809Z,81.30
2019-03-15T05:04:01.262Z,81.10
2019-03-15T05:06:29.705Z,81.20
2019-03-15T05:08:58.154Z,80.90
2019-03-15T05:11:26.611Z,80.70
2019-03-15T05:13:55.058Z,80.60
2019-03-15T05:16:23.489Z,80.50
2019-03-15T05:18:51.974Z,80.50
2019-03-15T05:21:20.420Z,80.60
2019-03-15T05:23:48.865Z,80.70
2019-03-15T05:26:17.343Z,80.90
2019-03-15T05:28:45.796Z,81.00
2019-03-15T05:31:14.257Z,81.10
2019-03-15T05:33:42.719Z,81.00
2019-03-15T05:36:11.166Z,81.20
2019-03-15T05:38:39.613Z,81.20
2019-03-15T05:41:08.064Z,81.20
2019-03-15T05:43:36.513Z,81.20
2019-03-15T05:46:04.979Z,81.40
2019-03-15T05:48:33.526Z,81.30
2019-03-15T05:51:01.972Z,81.30
2019-03-15T05:53:30.417Z,81.30
2019-03-15T05:55:58.899Z,81.50
2019-03-15T05:58:27.353Z,81.60
2019-03-15T06:00:55.801Z,81.40
2019-03-15T06:03:24.246Z,81.50
2019-03-15T06:05:52.731Z,81.50
2019-03-15T06:08:21.248Z,81.30
2019-03-15T06:10:49.691Z,81.40
2019-03-15T06:13:18.140Z,81.30
2019-03-15T06:15:46.605Z,81.30
2019-03-15T06:18:15.059Z,81.20
2019-03-15T06:20:43.540Z,81.00
2019-03-15T06:23:12.098Z,80.90
2019-03-15T06:25:40.620Z,80.90
2019-03-15T06:28:09.071Z,80.90
2019-03-15T06:30:37.511Z,80.70
2019-03-15T06:33:05.964Z,80.90
2019-03-15T06:35:34.414Z,80.80
2019-03-15T06:38:02.883Z,80.90
2019-03-15T06:40:32.363Z,80.80
2019-03-15T06:43:01.146Z,80.80
2019-03-15T06:45:29.609Z,80.70
2019-03-15T06:47:58.039Z,80.90
2019-03-15T06:50:26.498Z,80.80
2019-03-15T06:52:54.939Z,80.90
2019-03-15T06:55:23.417Z,80.70
2019-03-15T06:57:51.891Z,80.80
2019-03-15T07:00:20.430Z,80.80
2019-03-15T07:02:48.948Z,80.90
2019-03-15T07:05:17.395Z,80.90
2019-03-15T07:07:45.852Z,80.80
2019-03-15T07:10:14.395Z,80.80
2019-03-15T07:12:42.832Z,80.70
2019-03-15T07:15:13.136Z,80.60
2019-03-15T07:17:42.487Z,80.60
2019-03-15T07:20:15.003Z,81.10
2019-03-15T07:22:43.450Z,80.40
2019-03-15T07:25:12.260Z,80.30
2019-03-15T07:27:42.557Z,80.60
2019-03-15T07:30:13.575Z,80.50
2019-03-15T07:32:42.567Z,80.50
2019-03-15T07:35:11.081Z,80.20
2019-03-15T07:37:39.586Z,80.30
2019-03-15T07:40:10.140Z,80.20
2019-03-15T07:42:38.602Z,80.00
2019-03-15T07:45:09.397Z,80.20
2019-03-15T07:47:37.852Z,80.20
2019-03-15T07:50:09.415Z,80.40
2019-03-15T07:52:37.858Z,80.30
2019-03-15T07:55:08.647Z,80.30
2019-03-15T07:57:37.101Z,80.00
2019-03-15T08:00:08.703Z,79.70
2019-03-15T08:02:37.228Z,79.90
2019-03-15T08:05:06.719Z,80.20
2019-03-15T08:07:37.354Z,79.80
2019-03-15T08:10:11.209Z,79.90
2019-03-15T08:12:39.743Z,79.50
2019-03-15T08:15:11.019Z,79.40
2019-03-15T08:17:39.466Z,79.60
2019-03-15T08:20:12.510Z,79.80
2019-03-15T08:22:40.955Z,79.30
2019-03-15T08:25:10.938Z,79.20
2019-03-15T08:27:39.659Z,79.40
2019-03-15T08:30:11.349Z,79.20
2019-03-15T08:32:43.156Z,79.50
2019-03-15T08:35:10.883Z,79.50
2019-03-15T08:37:39.368Z,79.30
2019-03-15T08:40:10.066Z,79.20
2019-03-15T08:42:38.504Z,79.20
2019-03-15T08:45:12.512Z,78.80
2019-03-15T08:47:40.957Z,79.10
2019-03-15T08:50:15.562Z,79.70
2019-03-15T08:52:44.272Z,79.70
2019-03-15T08:55:14.423Z,79.20
2019-03-15T08:57:42.873Z,78.90
2019-03-15T09:00:19.167Z,78.70
2019-03-15T09:02:47.756Z,78.40
2019-03-15T09:05:17.247Z,78.40
2019-03-15T09:07:45.734Z,78.50
2019-03-15T09:10:23.281Z,78.10
2019-03-15T09:12:46.576Z,77.60
2019-03-15T09:15:15.052Z,77.90
2019-03-15T09:17:43.632Z,77.70
2019-03-15T09:20:14.323Z,77.30
2019-03-15T09:22:42.777Z,77.50
2019-03-15T09:25:20.203Z,77.60
2019-03-15T09:27:48.465Z,77.90
2019-03-15T09:30:23.549Z,78.60
2019-03-15T09:32:47.479Z,78.40
2019-03-15T09:35:15.955Z,77.70
2019-03-15T09:37:47.411Z,77.20
2019-03-15T09:40:16.157Z,76.90
2019-03-15T09:42:44.629Z,76.60
2019-03-15T09:45:17.591Z,75.90
2019-03-15T09:47:46.083Z,74.90
2019-03-15T09:50:26.410Z,75.50
2019-03-15T09:52:47.763Z,75.90
2019-03-15T09:55:16.215Z,76.10
2019-03-15T09:57:44.672Z,75.60
2019-03-15T10:00:33.989Z,75.20
2019-03-15T10:03:02.464Z,75.50
2019-03-15T10:05:30.924Z,75.60
2019-03-15T10:07:59.367Z,74.90
2019-03-15T10:10:27.900Z,74.30
2019-03-15T10:13:05.749Z,74.40
2019-03-15T10:15:26.819Z,74.20
2019-03-15T10:17:55.355Z,74.90
2019-03-15T10:20:23.827Z,75.30
2019-03-15T10:23:05.430Z,74.60
2019-03-15T10:25:22.464Z,74.30
2019-03-15T10:27:50.906Z,74.90
2019-03-15T10:30:20.297Z,74.70
2019-03-15T10:32:49.095Z,75.00
2019-03-15T10:35:17.541Z,75.00
2019-03-15T10:37:45.993Z,74.90
2019-03-15T10:40:19.767Z,74.50
2019-03-15T10:42:48.224Z,74.70
2019-03-15T10:45:16.678Z,74.90
2019-03-15T10:47:45.127Z,74.60
2019-03-15T10:50:17.501Z,74.70
2019-03-15T10:52:45.987Z,75.00
2019-03-15T10:55:14.703Z,75.30
2019-03-15T10:57:43.207Z,75.70
2019-03-15T11:00:20.376Z,75.90
2019-03-15T11:02:48.955Z,75.90
2019-03-15T11:05:17.479Z,75.50
2019-03-15T11:07:45.933Z,75.20
2019-03-15T11:10:15.157Z,74.30
2019-03-15T11:12:44.468Z,75.00
2019-03-15T11:15:15.192Z,75.40
2019-03-15T11:17:43.679Z,75.60
2019-03-15T11:20:12.763Z,75.90
2019-03-15T11:22:41.399Z,76.00
2019-03-15T11:25:10.781Z,76.30
2019-03-15T11:27:39.343Z,76.60
2019-03-15T11:30:14.597Z,76.80
2019-03-15T11:32:43.095Z,76.90
2019-03-15T11:35:12.205Z,77.20
2019-03-15T11:37:40.646Z,77.60
2019-03-15T11:40:14.050Z,77.80
2019-03-15T11:42:42.668Z,78.00
2019-03-15T11:45:12.160Z,78.50
2019-03-15T11:48:01.368Z,78.70
2019-03-15T11:50:16.028Z,79.10
2019-03-15T11:52:44.484Z,79.20
2019-03-15T11:55:13.136Z,79.50
2019-03-15T11:57:41.606Z,79.70
2019-03-15T12:00:13.151Z,79.80
2019-03-15T12:02:42.522Z,79.80
2019-03-15T12:05:11.522Z,80.00
2019-03-15T12:07:40.283Z,80.20
2019-03-15T12:10:16.882Z,80.20
2019-03-15T12:12:45.386Z,80.40
2019-03-15T12:15:15.388Z,80.50
2019-03-15T12:17:43.820Z,80.80
2019-03-15T12:20:13.122Z,81.10
2019-03-15T12:22:42.535Z,81.40
2019-03-15T12:25:12.287Z,81.30
2019-03-15T12:27:40.731Z,81.50
2019-03-15T12:30:12.239Z,81.50
2019-03-15T12:32:40.688Z,81.50
2019-03-15T12:35:11.411Z,81.70
2019-03-15T12:37:39.843Z,81.90
2019-03-15T12:40:10.527Z,82.00
2019-03-15T12:42:39.201Z,82.30
2019-03-15T12:45:12.681Z,82.50
2019-03-15T12:47:41.155Z,82.70
2019-03-15T12:50:11.905Z,82.70
2019-03-15T12:52:47.112Z,82.70
2019-03-15T12:55:11.544Z,82.80
2019-03-15T12:57:39.991Z,82.70
2019-03-15T13:00:15.432Z,82.70
2019-03-15T13:02:43.886Z,82.70
2019-03-15T13:05:12.396Z,82.80
2019-03-15T13:07:40.855Z,82.90
2019-03-15T13:10:20.972Z,83.00
2019-03-15T13:12:49.495Z,83.10
2019-03-15T13:15:18.121Z,83.20
2019-03-15T13:17:46.582Z,83.30
2019-03-15T13:20:18.455Z,83.60
2019-03-15T13:22:46.919Z,83.60
2019-03-15T13:25:15.416Z,83.90
2019-03-15T13:27:44.006Z,84.00
2019-03-15T13:30:14.003Z,84.40
2019-03-15T13:32:42.873Z,84.40
2019-03-15T13:35:11.689Z,83.80
2019-03-15T13:37:42.666Z,83.60
2019-03-15T13:40:17.715Z,83.10
2019-03-15T13:42:46.177Z,83.50
2019-03-15T13:45:15.625Z,83.00
2019-03-15T13:47:44.078Z,82.80
2019-03-15T13:50:14.722Z,82.40
2019-03-15T13:52:43.189Z,82.10
2019-03-15T13:55:11.781Z,82.30
2019-03-15T13:57:40.226Z,81.70
2019-03-15T14:00:11.577Z,80.70
2019-03-15T14:02:40.031Z,80.40
2019-03-15T14:05:08.559Z,79.70
2019-03-15T14:07:37.015Z,77.00
2019-03-15T14:10:13.995Z,77.70
2019-03-15T14:12:42.845Z,77.70
2019-03-15T14:15:32.151Z,76.50
2019-03-15T14:18:00.629Z,74.70
2019-03-15T14:20:29.068Z,73.60
2019-03-15T14:22:57.532Z,73.60
2019-03-15T14:25:29.963Z,74.90
2019-03-15T14:27:58.491Z,73.90
2019-03-15T14:30:26.989Z,71.80
2019-03-15T14:32:55.498Z,73.30
2019-03-15T14:35:23.981Z,71.50
2019-03-15T14:37:52.661Z,69.30
2019-03-15T14:40:21.214Z,70.30
2019-03-15T14:42:49.753Z,70.40
2019-03-15T14:45:20.125Z,71.50
2019-03-15T14:47:49.124Z,70.70
2019-03-15T14:50:17.573Z,69.60
2019-03-15T14:52:46.101Z,66.30
2019-03-15T14:55:17.650Z,66.60
2019-03-15T14:57:52.755Z,65.10
2019-03-15T15:00:17.654Z,63.40
2019-03-15T15:02:46.201Z,64.30
2019-03-15T15:05:14.657Z,65.20
2019-03-15T15:07:43.164Z,62.50
2019-03-15T15:10:16.865Z,63.50
2019-03-15T15:12:45.386Z,63.70
2019-03-15T15:15:15.262Z,61.50
2019-03-15T15:17:43.723Z,63.50
2019-03-15T15:20:12.906Z,65.20
2019-03-15T15:22:45.279Z,65.70
2019-03-15T15:25:17.623Z,65.70
2019-03-15T15:27:46.466Z,64.10
2019-03-15T15:30:24.253Z,65.10
2019-03-15T15:32:52.759Z,63.80
2019-03-15T15:35:29.263Z,64.10
2019-03-15T15:37:57.870Z,61.50
2019-03-15T15:40:26.322Z,60.90
2019-03-15T15:42:54.787Z,61.60
2019-03-15T15:45:23.308Z,63.80
2019-03-15T15:47:51.752Z,62.70
2019-03-15T15:50:20.224Z,62.00
2019-03-15T15:52:48.678Z,62.60
2019-03-15T15:55:17.293Z,61.60
2019-03-15T15:57:45.747Z,62.00
2019-03-15T16:00:18.312Z,61.30
2019-03-15T16:02:46.871Z,62.50
2019-03-15T16:05:15.459Z,61.60
2019-03-15T16:07:43.921Z,62.00
2019-03-15T16:10:13.602Z,61.20
2019-03-15T16:12:42.963Z,61.70
2019-03-15T16:15:17.906Z,61.70
2019-03-15T16:17:46.354Z,61.30
2019-03-15T16:20:14.873Z,59.70
2019-03-15T16:22:43.470Z,60.00
2019-03-15T16:25:32.764Z,60.20
2019-03-15T16:28:01.219Z,61.90
2019-03-15T16:30:29.659Z,61.00
2019-03-15T16:32:58.121Z,62.40
2019-03-15T16:35:26.635Z,62.00
2019-03-15T16:37:55.183Z,62.70
2019-03-15T16:40:23.620Z,64.20
2019-03-15T16:42:52.101Z,63.10
2019-03-15T16:45:26.311Z,63.40
2019-03-15T16:47:54.760Z,63.90
2019-03-15T16:50:23.202Z,63.30
2019-03-15T16:53:10.991Z,61.30
2019-03-15T16:55:39.439Z,62.70
2019-03-15T16:58:07.973Z,61.70
2019-03-15T17:00:36.479Z,62.60
2019-03-15T17:03:05.024Z,63.20
2019-03-15T17:05:33.478Z,64.00
2019-03-15T17:08:01.932Z,64.10
2019-03-15T17:10:30.483Z,64.30
2019-03-15T17:12:58.936Z,63.90
2019-03-15T17:15:29.124Z,65.10
2019-03-15T17:17:57.568Z,65.00
2019-03-15T17:20:26.043Z,64.70
2019-03-15T17:22:54.591Z,64.20
2019-03-15T17:25:23.081Z,63.70
2019-03-15T17:27:51.532Z,64.40
2019-03-15T17:30:20.608Z,65.30
2019-03-15T17:32:49.118Z,65.40
2019-03-15T17:35:18.530Z,65.30
2019-03-15T17:37:46.972Z,64.60
2019-03-15T17:40:17.832Z,65.10
2019-03-15T17:42:46.382Z,65.40
2019-03-15T17:45:14.963Z,65.70
2019-03-15T17:47:43.407Z,65.10
2019-03-15T17:50:16.002Z,64.60
2019-03-15T17:52:44.479Z,66.00
2019-03-15T17:55:13.963Z,65.20
2019-03-15T17:57:45.550Z,65.80
2019-03-15T18:00:41.791Z,65.00
2019-03-15T18:03:20.787Z,61.60
2019-03-15T18:05:40.513Z,64.30
2019-03-15T18:08:09.011Z,65.30
2019-03-15T18:10:37.470Z,63.90
2019-03-15T18:13:05.977Z,63.50
2019-03-15T18:15:34.426Z,65.50
2019-03-15T18:18:02.941Z,63.30
2019-03-15T18:20:31.495Z,65.00
2019-03-15T18:22:59.970Z,64.80
2019-03-15T18:25:28.413Z,64.10
2019-03-15T18:27:56.871Z,65.50
2019-03-15T18:30:25.364Z,65.30
2019-03-15T18:32:53.878Z,65.40
2019-03-15T18:35:33.123Z,65.50
2019-03-15T18:37:52.503Z,65.90
2019-03-15T18:40:21.333Z,65.00
2019-03-15T18:42:49.781Z,64.60
2019-03-15T18:45:18.816Z,65.70
2019-03-15T18:47:47.265Z,65.00
2019-03-15T18:50:20.879Z,65.70
2019-03-15T18:52:49.477Z,66.30
2019-03-15T18:55:18.083Z,64.80
2019-03-15T18:57:46.552Z,65.20
2019-03-15T19:00:17.802Z,64.70
2019-03-15T19:02:46.254Z,64.40
2019-03-15T19:05:14.942Z,63.20
2019-03-15T19:07:43.454Z,64.00
2019-03-15T19:10:15.913Z,63.50
2019-03-15T19:12:44.356Z,64.40
2019-03-15T19:15:14.827Z,64.40
2019-03-15T19:17:43.458Z,63.90
2019-03-15T19:20:13.996Z,63.40
2019-03-15T19:22:42.198Z,64.60
2019-03-15T19:25:14.230Z,63.30
2019-03-15T19:27:43.061Z,65.80
2019-03-15T19:30:13.358Z,64.70
2019-03-15T19:32:41.867Z,65.20
2019-03-15T19:35:10.488Z,65.10
2019-03-15T19:37:38.948Z,64.40
2019-03-15T19:40:15.784Z,64.20
2019-03-15T19:42:45.516Z,64.40
2019-03-15T19:45:16.206Z,64.20
2019-03-15T19:47:43.939Z,62.80
2019-03-15T19:50:19.427Z,63.00
2019-03-15T19:52:47.908Z,64.80
2019-03-15T19:55:16.984Z,65.30
2019-03-15T19:57:45.431Z,64.70
2019-03-15T20:00:18.229Z,64.90
2019-03-15T20:02:46.696Z,65.00
2019-03-15T20:05:15.210Z,65.30
2019-03-15T20:07:43.767Z,65.50
2019-03-15T20:10:16.434Z,65.20
2019-03-15T20:12:44.576Z,65.50
2019-03-15T20:15:17.278Z,65.50
2019-03-15T20:17:45.750Z,65.90
2019-03-15T20:20:15.301Z,65.40
2019-03-15T20:22:43.796Z,65.10
2019-03-15T20:25:13.432Z,65.50
2019-03-15T20:27:41.881Z,65.90
2019-03-15T20:30:21.075Z,66.20
2019-03-15T20:32:45.649Z,65.30
2019-03-15T20:35:14.100Z,65.50
2019-03-15T20:37:43.108Z,66.00
2019-03-15T20:40:13.017Z,65.70
2019-03-15T20:42:41.529Z,66.10
2019-03-15T20:45:18.262Z,65.90
2019-03-15T20:47:46.714Z,66.00
2019-03-15T20:50:15.236Z,65.70
2019-03-15T20:52:43.696Z,66.30
2019-03-15T20:55:12.312Z,66.00
2019-03-15T20:57:40.812Z,65.80
2019-03-15T21:00:12.309Z,66.30
2019-03-15T21:02:40.747Z,65.60
2019-03-15T21:05:10.075Z,65.90
2019-03-15T21:07:38.519Z,65.70
2019-03-15T21:10:10.138Z,66.30
2019-03-15T21:12:38.576Z,66.60
2019-03-15T21:15:09.663Z,66.80
2019-03-15T21:17:38.147Z,66.30
2019-03-15T21:20:16.652Z,66.60
2019-03-15T21:22:45.105Z,65.20
2019-03-15T21:25:13.624Z,65.70
2019-03-15T21:27:52.818Z,65.30
2019-03-15T21:30:17.839Z,65.90
2019-03-15T21:32:46.308Z,65.20
2019-03-15T21:35:14.752Z,66.30
2019-03-15T21:37:43.188Z,66.90
2019-03-15T21:40:13.944Z,66.70
2019-03-15T21:42:43.304Z,66.90
2019-03-15T21:45:12.291Z,66.10
2019-03-15T21:47:40.732Z,66.30
2019-03-15T21:50:20.034Z,66.30
2019-03-15T21:52:48.503Z,66.50
2019-03-15T21:55:17.010Z,66.50
2019-03-15T21:57:45.463Z,66.30
2019-03-15T22:00:15.169Z,66.30
2019-03-15T22:02:43.614Z,66.60
2019-03-15T22:05:12.102Z,67.00
2019-03-15T22:07:40.550Z,66.30
2019-03-15T22:10:12.108Z,66.90
2019-03-15T22:12:40.558Z,66.70
2019-03-15T22:15:10.663Z,66.80
2019-03-15T22:17:39.313Z,66.70
2019-03-15T22:20:19.674Z,65.50
2019-03-15T22:22:48.191Z,66.10
2019-03-15T22:25:16.648Z,66.50
2019-03-15T22:27:45.171Z,66.20
2019-03-15T22:30:14.397Z,65.90
2019-03-15T22:32:43.436Z,66.00
2019-03-15T22:35:12.054Z,66.00
2019-03-15T22:37:40.500Z,66.60
2019-03-15T22:40:11.336Z,66.30
2019-03-15T22:42:39.788Z,66.70
2019-03-15T22:45:10.844Z,66.20
2019-03-15T22:47:39.285Z,66.30
2019-03-15T22:50:09.946Z,66.50
2019-03-15T22:52:38.399Z,66.70
2019-03-15T22:55:11.073Z,66.60
2019-03-15T22:57:40.284Z,66.50
2019-03-15T23:00:14.587Z,67.00
2019-03-15T23:02:43.412Z,66.80
2019-03-15T23:05:12.050Z,67.30
2019-03-15T23:07:40.503Z,67.30
2019-03-15T23:10:10.551Z,67.70
2019-03-15T23:12:39.000Z,67.10
2019-03-15T23:15:09.746Z,67.10
2019-03-15T23:17:38.190Z,66.90
2019-03-15T23:20:08.571Z,66.80
2019-03-15T23:22:36.244Z,66.60
2019-03-15T23:25:06.356Z,65.60
2019-03-15T23:27:34.813Z,66.80
2019-03-15T23:30:04.225Z,66.60
2019-03-15T23:32:32.674Z,66.00
2019-03-15T23:35:01.184Z,66.70
2019-03-15T23:37:29.733Z,66.40
2019-03-15T23:39:58.170Z,66.90
2019-03-15T23:42:26.652Z,66.70
2019-03-15T23:44:55.165Z,66.90
2019-03-15T23:47:23.618Z,66.50
2019-03-15T23:49:52.059Z,66.80
2019-03-15T23:52:20.501Z,66.90
2019-03-15T23:54:48.950Z,67.10
2019-03-15T23:57:17.391Z,66.90
2019-03-15T23:59:45.875Z,67.10
